createdAt,value
2022-10-15T00:02:18.405Z,96331.97
2022-10-15T00:04:44.904Z,96335.63
2022-10-15T00:07:11.332Z,96319.75
2022-10-15T00:09:37.780Z,96327.47
2022-10-15T00:12:04.306Z,96324.84
2022-10-15T00:14:30.967Z,96323.22
2022-10-15T00:16:57.391Z,96327.47
2022-10-15T00:19:23.799Z,96332.78
2022-10-15T00:21:50.316Z,96328.50
2022-10-15T00:24:16.784Z,96318.94
2022-10-15T00:26:43.255Z,96325.28
2022-10-15T00:29:09.745Z,96326.50
2022-10-15T00:31:36.251Z,96316.97
2022-10-15T00:34:03.246Z,96323.06
2022-10-15T00:36:30.794Z,96313.91
2022-10-15T00:38:57.344Z,96317.38
2022-10-15T00:41:30.939Z,96317.59
2022-10-15T00:43:58.527Z,96314.94
2022-10-15T00:46:25.876Z,96311.69
2022-10-15T00:48:58.997Z,96306.41
2022-10-15T00:51:26.540Z,96308.47
2022-10-15T00:53:53.009Z,96301.78
2022-10-15T00:56:21.072Z,96308.09
2022-10-15T00:58:47.656Z,96306.47
2022-10-15T01:01:14.287Z,96304.03
2022-10-15T01:03:40.751Z,96301.19
2022-10-15T01:06:07.349Z,96298.75
2022-10-15T01:08:34.091Z,96296.13
2022-10-15T01:11:19.368Z,96294.50
2022-10-15T01:14:00.102Z,96298.16
2022-10-15T01:16:45.275Z,96291.06
2022-10-15T01:19:18.232Z,96291.88
2022-10-15T01:21:47.551Z,96286.38
2022-10-15T01:24:22.157Z,96278.06
2022-10-15T01:27:07.668Z,96277.69
2022-10-15T01:29:52.409Z,96277.75
2022-10-15T01:32:21.967Z,96274.09
2022-10-15T01:34:51.463Z,96274.75
2022-10-15T01:37:27.047Z,96270.72
2022-10-15T01:40:02.074Z,96280.09
2022-10-15T01:42:29.610Z,96277.44
2022-10-15T01:44:58.516Z,96271.34
2022-10-15T01:47:26.300Z,96286.59
2022-10-15T01:49:53.132Z,96281.53
2022-10-15T01:52:20.761Z,96293.13
2022-10-15T01:54:47.586Z,96295.34
2022-10-15T01:57:14.053Z,96301.22
2022-10-15T01:59:40.466Z,96298.97
2022-10-15T02:02:06.891Z,96297.72
2022-10-15T02:04:33.375Z,96284.50
2022-10-15T02:07:10.511Z,96277.41
2022-10-15T02:09:39.920Z,96289.00
2022-10-15T02:12:26.982Z,96287.59
2022-10-15T02:14:54.794Z,96279.72
2022-10-15T02:17:23.550Z,96283.97
2022-10-15T02:19:51.739Z,96281.34
2022-10-15T02:22:19.841Z,96281.59
2022-10-15T02:24:53.033Z,96277.56
2022-10-15T02:27:22.031Z,96269.63
2022-10-15T02:29:49.236Z,96264.53
2022-10-15T02:32:15.668Z,96272.22
2022-10-15T02:34:42.101Z,96267.75
2022-10-15T02:37:08.587Z,96270.75
2022-10-15T02:39:35.175Z,96272.97
2022-10-15T02:42:01.768Z,96273.78
2022-10-15T02:44:28.211Z,96266.44
2022-10-15T02:46:54.871Z,96266.44
2022-10-15T02:49:21.290Z,96277.00
2022-10-15T02:51:47.745Z,96272.91
2022-10-15T02:54:14.222Z,96272.09
2022-10-15T02:56:40.659Z,96284.28
2022-10-15T02:59:07.281Z,96280.91
2022-10-15T03:01:34.339Z,96283.00
2022-10-15T03:04:01.064Z,96289.44
2022-10-15T03:06:27.516Z,96302.84
2022-10-15T03:08:53.907Z,96296.78
2022-10-15T03:11:20.356Z,96292.38
2022-10-15T03:13:46.820Z,96295.50
2022-10-15T03:16:13.284Z,96297.06
2022-10-15T03:18:40.890Z,96291.03
2022-10-15T03:21:07.751Z,96295.13
2022-10-15T03:26:05.585Z,96292.34
2022-10-15T03:28:32.038Z,96300.31
2022-10-15T03:30:58.549Z,96303.25
2022-10-15T03:33:25.366Z,96298.50
2022-10-15T03:35:52.779Z,96297.41
2022-10-15T03:38:19.258Z,96287.66
2022-10-15T03:40:45.922Z,96292.75
2022-10-15T03:43:12.336Z,96286.91
2022-10-15T03:45:38.786Z,96290.69
2022-10-15T03:48:05.422Z,96283.47
2022-10-15T03:50:31.876Z,96281.06
2022-10-15T03:52:58.342Z,96276.78
2022-10-15T03:55:24.803Z,96280.75
2022-10-15T03:57:51.283Z,96276.13
2022-10-15T04:00:17.750Z,96269.88
2022-10-15T04:02:44.183Z,96272.81
2022-10-15T04:05:10.596Z,96279.78
2022-10-15T04:07:37.034Z,96280.63
2022-10-15T04:10:03.639Z,96271.66
2022-10-15T04:12:30.135Z,96275.91
2022-10-15T04:14:56.572Z,96274.81
2022-10-15T04:17:23.074Z,96264.34
2022-10-15T04:19:49.483Z,96271.44
2022-10-15T04:22:15.919Z,96273.84
2022-10-15T04:24:42.343Z,96268.41
2022-10-15T04:27:08.903Z,96273.69
2022-10-15T04:29:35.428Z,96279.59
2022-10-15T04:32:01.907Z,96278.84
2022-10-15T04:34:28.686Z,96283.34
2022-10-15T04:36:55.884Z,96286.56
2022-10-15T04:39:22.343Z,96291.94
2022-10-15T04:41:48.985Z,96299.59
2022-10-15T04:44:15.550Z,96294.16
2022-10-15T04:46:41.989Z,96295.34
2022-10-15T04:49:08.492Z,96290.03
2022-10-15T04:51:34.923Z,96292.16
2022-10-15T04:54:01.839Z,96303.47
2022-10-15T04:56:28.288Z,96300.03
2022-10-15T04:58:54.838Z,96293.31
2022-10-15T05:01:21.355Z,96291.13
2022-10-15T05:03:48.323Z,96289.50
2022-10-15T05:06:18.847Z,96289.94
2022-10-15T05:08:45.653Z,96294.78
2022-10-15T05:11:16.520Z,96286.88
2022-10-15T05:13:43.101Z,96293.38
2022-10-15T05:16:10.525Z,96284.66
2022-10-15T05:18:37.120Z,96280.94
2022-10-15T05:21:03.636Z,96276.56
2022-10-15T05:23:30.081Z,96276.34
2022-10-15T05:25:59.395Z,96276.97
2022-10-15T05:28:25.867Z,96271.09
2022-10-15T05:30:52.350Z,96274.53
2022-10-15T05:33:18.820Z,96266.81
2022-10-15T05:35:45.297Z,96264.03
2022-10-15T05:38:11.875Z,96273.34
2022-10-15T05:40:38.346Z,96288.19
2022-10-15T05:43:04.758Z,96287.75
2022-10-15T05:45:31.198Z,96288.59
2022-10-15T05:47:57.631Z,96297.56
2022-10-15T05:50:24.127Z,96301.81
2022-10-15T05:52:50.601Z,96294.91
2022-10-15T05:55:17.043Z,96300.19
2022-10-15T05:57:43.448Z,96306.94
2022-10-15T06:00:10.224Z,96309.56
2022-10-15T06:02:36.757Z,96305.53
2022-10-15T06:05:03.773Z,96308.97
2022-10-15T06:07:30.266Z,96320.16
2022-10-15T06:09:56.735Z,96317.28
2022-10-15T06:12:23.158Z,96320.56
2022-10-15T06:14:49.632Z,96320.75
2022-10-15T06:17:16.060Z,96317.72
2022-10-15T06:19:42.485Z,96312.38
2022-10-15T06:22:08.873Z,96320.47
2022-10-15T06:24:35.448Z,96326.78
2022-10-15T06:27:01.855Z,96326.56
2022-10-15T06:29:28.325Z,96329.00
2022-10-15T06:31:54.841Z,96324.47
2022-10-15T06:34:21.309Z,96315.28
2022-10-15T06:36:47.743Z,96327.25
2022-10-15T06:39:14.176Z,96320.16
2022-10-15T06:41:40.637Z,96330.31
2022-10-15T06:44:07.088Z,96321.53
2022-10-15T06:46:33.483Z,96326.53
2022-10-15T06:48:59.936Z,96335.25
2022-10-15T06:51:26.373Z,96333.78
2022-10-15T06:53:52.875Z,96343.69
2022-10-15T06:56:19.507Z,96342.78
2022-10-15T06:58:45.928Z,96342.53
2022-10-15T07:01:12.367Z,96341.66
2022-10-15T07:03:41.856Z,96333.22
2022-10-15T07:06:08.821Z,96336.66
2022-10-15T07:08:35.456Z,96331.63
2022-10-15T07:11:03.146Z,96338.72
2022-10-15T07:13:29.854Z,96343.84
2022-10-15T07:15:56.325Z,96344.00
2022-10-15T07:18:22.756Z,96340.88
2022-10-15T07:20:49.200Z,96346.31
2022-10-15T07:23:15.636Z,96347.91
2022-10-15T07:25:42.187Z,96356.88
2022-10-15T07:28:08.578Z,96360.66
2022-10-15T07:30:35.035Z,96361.47
2022-10-15T07:33:01.461Z,96364.88
2022-10-15T07:35:28.112Z,96362.22
2022-10-15T07:37:54.561Z,96362.13
2022-10-15T07:40:21.022Z,96364.00
2022-10-15T07:42:54.488Z,96367.88
2022-10-15T07:45:20.991Z,96372.50
2022-10-15T07:47:47.383Z,96376.09
2022-10-15T07:50:13.868Z,96372.50
2022-10-15T07:52:40.326Z,96364.63
2022-10-15T07:55:06.914Z,96363.66
2022-10-15T07:57:33.379Z,96359.31
2022-10-15T07:59:59.816Z,96361.66
2022-10-15T08:02:26.664Z,96368.91
2022-10-15T08:04:53.232Z,96362.47
2022-10-15T08:07:19.664Z,96377.25
2022-10-15T08:12:12.441Z,96375.50
2022-10-15T08:14:39.003Z,96368.56
2022-10-15T08:17:05.637Z,96370.06
2022-10-15T08:19:32.206Z,96360.72
2022-10-15T08:21:58.845Z,96365.50
2022-10-15T08:24:25.354Z,96352.25
2022-10-15T08:26:52.067Z,96349.09
2022-10-15T08:29:18.536Z,96357.72
2022-10-15T08:31:44.957Z,96354.63
2022-10-15T08:34:11.456Z,96363.59
2022-10-15T08:36:37.885Z,96367.28
2022-10-15T08:39:07.277Z,96356.50
2022-10-15T08:41:44.515Z,96354.28
2022-10-15T08:44:29.779Z,96353.91
2022-10-15T08:46:57.636Z,96351.31
2022-10-15T08:49:44.345Z,96339.03
2022-10-15T08:52:14.966Z,96347.84
2022-10-15T08:54:41.424Z,96344.28
2022-10-15T08:57:31.196Z,96350.16
2022-10-15T09:00:00.224Z,96342.78
2022-10-15T09:02:38.774Z,96344.50
2022-10-15T09:05:16.489Z,96351.22
2022-10-15T09:07:43.470Z,96352.44
2022-10-15T09:10:15.635Z,96358.59
2022-10-15T09:13:01.787Z,96349.19
2022-10-15T09:15:28.469Z,96357.53
2022-10-15T09:17:54.886Z,96359.81
2022-10-15T09:20:23.502Z,96346.63
2022-10-15T09:22:50.830Z,96357.91
2022-10-15T09:25:18.854Z,96349.69
2022-10-15T09:27:46.246Z,96344.25
2022-10-15T09:30:33.539Z,96352.31
2022-10-15T09:33:03.377Z,96354.53
2022-10-15T09:35:30.738Z,96347.16
2022-10-15T09:37:57.173Z,96347.72
2022-10-15T09:40:28.896Z,96355.28
2022-10-15T09:42:55.875Z,96344.38
2022-10-15T09:45:24.144Z,96350.69
2022-10-15T09:47:50.691Z,96345.28
2022-10-15T09:53:03.336Z,96342.00
2022-10-15T09:55:59.290Z,96337.28
2022-10-15T09:58:30.471Z,96332.59
2022-10-15T10:00:58.309Z,96332.03
2022-10-15T10:03:26.037Z,96334.00
2022-10-15T10:05:58.717Z,96332.16
2022-10-15T10:08:25.507Z,96349.94
2022-10-15T10:10:55.307Z,96339.56
2022-10-15T10:13:26.443Z,96349.19
2022-10-15T10:15:58.262Z,96348.13
2022-10-15T10:18:26.198Z,96348.09
2022-10-15T10:20:59.151Z,96340.19
2022-10-15T10:23:36.001Z,96358.09
2022-10-15T10:26:03.552Z,96353.06
2022-10-15T10:28:32.002Z,96349.06
2022-10-15T10:30:58.597Z,96351.25
2022-10-15T10:33:26.991Z,96346.66
2022-10-15T10:35:53.483Z,96346.59
2022-10-15T10:38:21.020Z,96337.78
2022-10-15T10:40:50.949Z,96335.94
2022-10-15T10:43:17.366Z,96337.06
2022-10-15T10:45:57.519Z,96332.78
2022-10-15T10:48:25.671Z,96340.44
2022-10-15T10:51:10.034Z,96327.63
2022-10-15T10:53:53.974Z,96332.63
2022-10-15T10:56:22.392Z,96330.81
2022-10-15T10:58:49.254Z,96335.47
2022-10-15T11:01:15.744Z,96328.09
2022-10-15T11:03:43.264Z,96322.97
2022-10-15T11:06:18.904Z,96339.03
2022-10-15T11:09:04.657Z,96332.31
2022-10-15T11:11:33.954Z,96317.34
2022-10-15T11:14:03.398Z,96311.94
2022-10-15T11:16:44.941Z,96312.66
2022-10-15T11:19:50.366Z,96318.84
2022-10-15T11:22:13.054Z,96304.28
2022-10-15T11:24:49.195Z,96306.84
2022-10-15T11:27:40.515Z,96309.84
2022-10-15T11:30:30.308Z,96311.84
2022-10-15T11:33:08.887Z,96299.72
2022-10-15T11:35:53.943Z,96305.94
2022-10-15T11:38:20.967Z,96315.06
2022-10-15T11:41:01.797Z,96304.19
2022-10-15T11:43:35.703Z,96306.38
2022-10-15T11:46:05.281Z,96306.31
2022-10-15T11:48:38.631Z,96305.50
2022-10-15T11:51:08.100Z,96296.00
2022-10-15T11:53:42.600Z,96301.56
2022-10-15T11:56:22.924Z,96280.03
2022-10-15T11:58:52.941Z,96279.81
2022-10-15T12:01:39.185Z,96279.31
2022-10-15T12:04:13.298Z,96276.53
2022-10-15T12:06:40.828Z,96279.56
2022-10-15T12:09:07.276Z,96273.75
2022-10-15T12:11:42.864Z,96276.88
2022-10-15T12:14:15.528Z,96276.03
2022-10-15T12:16:53.165Z,96263.47
2022-10-15T12:19:19.672Z,96271.19
2022-10-15T12:21:55.197Z,96269.81
2022-10-15T12:24:44.740Z,96261.94
2022-10-15T12:27:20.357Z,96259.00
2022-10-15T12:29:47.579Z,96260.72
2022-10-15T12:32:26.943Z,96264.78
2022-10-15T12:34:56.966Z,96254.81
2022-10-15T12:37:24.455Z,96251.56
2022-10-15T12:39:55.415Z,96252.97
2022-10-15T12:42:37.796Z,96252.78
2022-10-15T12:45:05.619Z,96250.25
2022-10-15T12:47:48.118Z,96245.19
2022-10-15T12:50:21.918Z,96244.13
2022-10-15T12:52:52.756Z,96240.84
2022-10-15T12:55:23.738Z,96242.25
2022-10-15T12:57:54.188Z,96246.81
2022-10-15T13:00:27.767Z,96240.56
2022-10-15T13:02:54.352Z,96246.34
2022-10-15T13:05:30.769Z,96253.28
2022-10-15T13:07:57.527Z,96246.47
2022-10-15T13:10:33.510Z,96243.34
2022-10-15T13:13:00.932Z,96246.34
2022-10-15T13:15:28.047Z,96243.56
2022-10-15T13:18:05.300Z,96237.03
2022-10-15T13:20:33.921Z,96245.38
2022-10-15T13:23:32.548Z,96244.91
2022-10-15T13:26:30.011Z,96237.97
2022-10-15T13:28:59.580Z,96247.03
2022-10-15T13:31:30.107Z,96233.38
2022-10-15T13:34:20.663Z,96240.16
2022-10-15T13:36:47.324Z,96246.63
2022-10-15T13:39:29.292Z,96241.41
2022-10-15T13:42:16.057Z,96246.44
2022-10-15T13:44:43.228Z,96250.78
2022-10-15T13:47:26.078Z,96248.06
2022-10-15T13:49:52.507Z,96240.34
2022-10-15T13:52:18.958Z,96246.88
2022-10-15T13:54:46.188Z,96251.16
2022-10-15T13:57:14.777Z,96240.97
2022-10-15T13:59:42.036Z,96240.97
2022-10-15T14:02:10.526Z,96248.81
2022-10-15T14:04:36.998Z,96240.13
2022-10-15T14:07:22.878Z,96241.50
2022-10-15T14:09:49.693Z,96238.31
2022-10-15T14:12:16.279Z,96237.31
2022-10-15T14:14:46.619Z,96244.47
2022-10-15T14:17:23.148Z,96247.19
2022-10-15T14:20:08.288Z,96239.16
2022-10-15T14:22:40.268Z,96236.00
2022-10-15T14:25:09.977Z,96238.16
2022-10-15T14:27:36.579Z,96241.88
2022-10-15T14:30:03.456Z,96239.44
2022-10-15T14:32:46.809Z,96248.31
2022-10-15T14:35:30.041Z,96257.34
2022-10-15T14:38:04.043Z,96243.81
2022-10-15T14:40:30.716Z,96247.59
2022-10-15T14:43:06.426Z,96245.59
2022-10-15T14:45:39.729Z,96237.91
2022-10-15T14:48:10.268Z,96241.94
2022-10-15T14:50:38.459Z,96245.72
2022-10-15T14:53:08.876Z,96252.09
2022-10-15T14:55:38.750Z,96250.25
2022-10-15T14:58:09.381Z,96254.06
2022-10-15T15:00:39.836Z,96255.56
2022-10-15T15:03:07.180Z,96253.38
2022-10-15T15:05:47.251Z,96253.84
2022-10-15T15:08:14.075Z,96253.78
2022-10-15T15:10:40.578Z,96257.88
2022-10-15T15:13:07.022Z,96251.03
2022-10-15T15:15:33.529Z,96240.50
2022-10-15T15:18:00.206Z,96238.50
2022-10-15T15:20:26.746Z,96248.56
2022-10-15T15:22:53.728Z,96248.22
2022-10-15T15:25:20.161Z,96253.22
2022-10-15T15:27:46.900Z,96263.03
2022-10-15T15:30:17.653Z,96262.56
2022-10-15T15:32:44.221Z,96262.22
2022-10-15T15:35:30.917Z,96259.53
2022-10-15T15:37:57.408Z,96271.47
2022-10-15T15:40:23.852Z,96268.06
2022-10-15T15:42:50.756Z,96248.34
2022-10-15T15:45:26.817Z,96261.31
2022-10-15T15:47:53.544Z,96260.81
2022-10-15T15:50:20.722Z,96249.50
2022-10-15T15:52:47.471Z,96255.16
2022-10-15T15:55:14.200Z,96262.00
2022-10-15T15:57:40.614Z,96263.72
2022-10-15T16:00:07.460Z,96263.25
2022-10-15T16:02:34.013Z,96268.31
2022-10-15T16:05:02.002Z,96251.47
2022-10-15T16:07:28.903Z,96231.22
2022-10-15T16:09:55.564Z,96256.69
2022-10-15T16:12:22.048Z,96259.81
2022-10-15T16:14:48.655Z,96259.72
2022-10-15T16:17:15.136Z,96262.63
2022-10-15T16:19:41.591Z,96271.88
2022-10-15T16:22:08.027Z,96270.94
2022-10-15T16:24:34.568Z,96267.72
2022-10-15T16:27:01.117Z,96270.94
2022-10-15T16:29:27.611Z,96264.47
2022-10-15T16:31:54.109Z,96263.19
2022-10-15T16:34:20.958Z,96278.59
2022-10-15T16:36:47.398Z,96274.16
2022-10-15T16:39:13.864Z,96288.59
2022-10-15T16:41:40.354Z,96289.41
2022-10-15T16:44:06.871Z,96280.16
2022-10-15T16:46:33.389Z,96297.84
2022-10-15T16:48:59.812Z,96305.34
2022-10-15T16:51:26.707Z,96317.69
2022-10-15T16:53:54.653Z,96319.53
2022-10-15T16:56:22.294Z,96325.94
2022-10-15T16:58:49.035Z,96332.50
2022-10-15T17:01:17.063Z,96334.81
2022-10-15T17:03:43.511Z,96341.06
2022-10-15T17:06:10.962Z,96351.44
2022-10-15T17:08:37.375Z,96343.81
2022-10-15T17:11:03.849Z,96366.78
2022-10-15T17:13:30.235Z,96365.25
2022-10-15T17:15:59.200Z,96365.03
2022-10-15T17:18:27.654Z,96370.09
2022-10-15T17:20:54.122Z,96372.75
2022-10-15T17:23:20.548Z,96377.03
2022-10-15T17:25:46.998Z,96388.56
2022-10-15T17:28:14.919Z,96398.72
2022-10-15T17:30:41.561Z,96400.09
2022-10-15T17:33:08.044Z,96411.41
2022-10-15T17:35:37.723Z,96419.72
2022-10-15T17:38:04.331Z,96420.59
2022-10-15T17:40:30.924Z,96438.59
2022-10-15T17:42:57.465Z,96434.59
2022-10-15T17:45:24.007Z,96450.97
2022-10-15T17:47:50.458Z,96449.13
2022-10-15T17:50:16.942Z,96450.97
2022-10-15T17:52:43.368Z,96460.63
2022-10-15T17:55:09.865Z,96463.06
2022-10-15T17:57:36.315Z,96467.19
2022-10-15T18:00:02.802Z,96475.03
2022-10-15T18:02:29.337Z,96491.41
2022-10-15T18:04:55.802Z,96493.66
2022-10-15T18:07:22.436Z,96503.47
2022-10-15T18:09:49.373Z,96505.75
2022-10-15T18:12:15.954Z,96505.97
2022-10-15T18:14:42.495Z,96505.84
2022-10-15T18:17:09.021Z,96511.50
2022-10-15T18:19:35.461Z,96510.47
2022-10-15T18:22:01.874Z,96513.59
2022-10-15T18:24:28.312Z,96526.25
2022-10-15T18:26:54.822Z,96529.72
2022-10-15T18:29:22.453Z,96527.06
2022-10-15T18:31:53.430Z,96531.22
2022-10-15T18:34:22.860Z,96547.13
2022-10-15T18:36:49.339Z,96546.09
2022-10-15T18:39:15.821Z,96543.25
2022-10-15T18:44:12.918Z,96521.22
2022-10-15T18:46:42.070Z,96531.38
2022-10-15T18:49:08.505Z,96531.72
2022-10-15T18:51:35.067Z,96535.88
2022-10-15T18:54:01.740Z,96532.03
2022-10-15T18:56:28.500Z,96526.63
2022-10-15T18:58:55.029Z,96536.84
2022-10-15T19:01:24.933Z,96539.41
2022-10-15T19:03:52.685Z,96547.75
2022-10-15T19:06:22.926Z,96537.44
2022-10-15T19:08:50.295Z,96543.75
2022-10-15T19:11:17.132Z,96545.22
2022-10-15T19:13:43.551Z,96543.41
2022-10-15T19:16:09.974Z,96534.50
2022-10-15T19:18:39.314Z,96536.59
2022-10-15T19:21:06.049Z,96537.63
2022-10-15T19:23:32.852Z,96542.97
2022-10-15T19:25:59.323Z,96539.59
2022-10-15T19:28:26.202Z,96539.00
2022-10-15T19:30:59.870Z,96545.09
2022-10-15T19:33:26.579Z,96547.41
2022-10-15T19:35:53.646Z,96560.84
2022-10-15T19:38:20.235Z,96560.03
2022-10-15T19:40:49.382Z,96568.19
2022-10-15T19:43:16.548Z,96577.97
2022-10-15T19:45:43.298Z,96573.69
2022-10-15T19:48:10.430Z,96565.94
2022-10-15T19:50:38.054Z,96569.03
2022-10-15T19:53:04.766Z,96575.53
2022-10-15T19:55:31.237Z,96576.16
2022-10-15T19:57:57.668Z,96571.69
2022-10-15T20:00:24.328Z,96564.78
2022-10-15T20:02:50.880Z,96568.03
2022-10-15T20:05:17.449Z,96567.22
2022-10-15T20:07:43.954Z,96562.94
2022-10-15T20:10:10.443Z,96564.16
2022-10-15T20:12:36.946Z,96572.09
2022-10-15T20:15:03.841Z,96580.88
2022-10-15T20:17:30.292Z,96570.06
2022-10-15T20:19:56.781Z,96576.19
2022-10-15T20:22:23.503Z,96586.34
2022-10-15T20:24:50.263Z,96585.34
2022-10-15T20:27:16.708Z,96595.09
2022-10-15T20:29:43.144Z,96599.78
2022-10-15T20:32:30.095Z,96604.25
2022-10-15T20:34:59.913Z,96603.84
2022-10-15T20:37:26.338Z,96612.16
2022-10-15T20:39:52.809Z,96615.19
2022-10-15T20:42:19.323Z,96622.47
2022-10-15T20:44:45.751Z,96604.78
2022-10-15T20:47:12.269Z,96604.16
2022-10-15T20:49:42.281Z,96616.97
2022-10-15T20:52:08.921Z,96624.06
2022-10-15T20:54:35.464Z,96633.22
2022-10-15T20:57:02.302Z,96634.03
2022-10-15T20:59:30.387Z,96637.47
2022-10-15T21:01:57.153Z,96639.53
2022-10-15T21:04:23.618Z,96644.22
2022-10-15T21:06:50.067Z,96646.22
2022-10-15T21:09:16.548Z,96653.13
2022-10-15T21:11:43.747Z,96650.06
2022-10-15T21:14:10.916Z,96660.00
2022-10-15T21:16:37.441Z,96649.00
2022-10-15T21:19:03.984Z,96655.09
2022-10-15T21:21:30.524Z,96670.00
2022-10-15T21:23:57.693Z,96672.66
2022-10-15T21:26:24.102Z,96673.28
2022-10-15T21:28:54.531Z,96682.63
2022-10-15T21:31:21.024Z,96689.97
2022-10-15T21:33:48.016Z,96681.59
2022-10-15T21:36:21.895Z,96680.75
2022-10-15T21:38:49.397Z,96677.47
2022-10-15T21:41:16.077Z,96678.91
2022-10-15T21:43:42.596Z,96691.34
2022-10-15T21:46:10.307Z,96701.09
2022-10-15T21:48:37.055Z,96700.09
2022-10-15T21:51:13.629Z,96700.06
2022-10-15T21:53:40.302Z,96689.09
2022-10-15T21:56:08.206Z,96681.16
2022-10-15T21:58:36.429Z,96673.84
2022-10-15T22:01:13.466Z,96684.47
2022-10-15T22:03:42.166Z,96685.06
2022-10-15T22:06:08.971Z,96679.59
2022-10-15T22:08:35.619Z,96669.22
2022-10-15T22:11:12.367Z,96679.00
2022-10-15T22:13:39.046Z,96678.38
2022-10-15T22:16:05.993Z,96681.03
2022-10-15T22:18:32.430Z,96687.13
2022-10-15T22:20:58.932Z,96705.84
2022-10-15T22:23:27.712Z,96695.47
2022-10-15T22:25:58.293Z,96688.75
2022-10-15T22:28:25.009Z,96700.56
2022-10-15T22:30:52.076Z,96704.22
2022-10-15T22:33:18.628Z,96699.16
2022-10-15T22:35:45.139Z,96695.66
2022-10-15T22:38:11.534Z,96689.19
2022-10-15T22:40:37.972Z,96706.69
2022-10-15T22:43:04.406Z,96692.63
2022-10-15T22:45:30.858Z,96696.28
2022-10-15T22:47:57.295Z,96700.16
2022-10-15T22:50:23.718Z,96700.56
2022-10-15T22:52:50.144Z,96685.91
2022-10-15T22:55:16.599Z,96683.88
2022-10-15T22:57:43.100Z,96689.16
2022-10-15T23:00:10.049Z,96688.72
2022-10-15T23:02:36.464Z,96689.16
2022-10-15T23:05:02.950Z,96682.25
2022-10-15T23:07:29.427Z,96688.38
2022-10-15T23:09:55.853Z,96693.22
2022-10-15T23:12:22.889Z,96700.13
2022-10-15T23:14:49.544Z,96712.34
2022-10-15T23:17:16.047Z,96716.44
2022-10-15T23:19:42.487Z,96716.03
2022-10-15T23:22:10.613Z,96718.47
2022-10-15T23:24:37.061Z,96705.66
2022-10-15T23:27:03.718Z,96713.38
2022-10-15T23:29:30.189Z,96710.34
2022-10-15T23:31:56.633Z,96703.59
2022-10-15T23:34:23.807Z,96706.66
2022-10-15T23:36:50.335Z,96697.28
2022-10-15T23:39:18.247Z,96698.72
2022-10-15T23:41:45.118Z,96693.84
2022-10-15T23:44:12.046Z,96692.84
2022-10-15T23:46:38.573Z,96706.25
2022-10-15T23:49:05.059Z,96704.84
2022-10-15T23:51:31.683Z,96705.44
2022-10-15T23:53:58.843Z,96705.88
2022-10-15T23:56:25.771Z,96703.81
2022-10-15T23:58:53.317Z,96701.38
